sensor_id;sensor_type;location;lat;lon;timestamp;pressure;altitude;pressure_sealevel;temperature;humidity
69058;BME280;56128;37.534;-122.308;2023-03-11T00:01:17;101011.81;;;11.99;100.00
69058;BME280;56128;37.534;-122.308;2023-03-11T00:03:44;101017.44;;;11.96;100.00
69058;BME280;56128;37.534;-122.308;2023-03-11T00:06:10;101020.72;;;11.99;100.00
69058;BME280;56128;37.534;-122.308;2023-03-11T00:08:36;101015.25;;;12.01;100.00
69058;BME280;56128;37.534;-122.308;2023-03-11T00:11:02;101019.13;;;12.08;100.00
69058;BME280;56128;37.534;-122.308;2023-03-11T00:13:29;101006.72;;;12.07;100.00
69058;BME280;56128;37.534;-122.308;2023-03-11T00:15:56;101022.09;;;12.16;100.00
69058;BME280;56128;37.534;-122.308;2023-03-11T00:18:26;101025.50;;;12.18;100.00
69058;BME280;56128;37.534;-122.308;2023-03-11T00:20:56;101030.41;;;12.25;100.00
69058;BME280;56128;37.534;-122.308;2023-03-11T00:23:24;101032.94;;;12.26;100.00
69058;BME280;56128;37.534;-122.308;2023-03-11T00:25:51;101032.47;;;12.32;100.00
69058;BME280;56128;37.534;-122.308;2023-03-11T00:28:17;101022.34;;;12.25;100.00
69058;BME280;56128;37.534;-122.308;2023-03-11T00:30:45;101027.44;;;12.28;100.00
69058;BME280;56128;37.534;-122.308;2023-03-11T00:33:13;101031.59;;;12.32;100.00
69058;BME280;56128;37.534;-122.308;2023-03-11T00:35:41;101034.19;;;12.33;100.00
69058;BME280;56128;37.534;-122.308;2023-03-11T00:38:11;101036.25;;;12.30;100.00
69058;BME280;56128;37.534;-122.308;2023-03-11T00:40:38;101044.38;;;12.28;100.00
69058;BME280;56128;37.534;-122.308;2023-03-11T00:43:05;101030.63;;;12.22;100.00
69058;BME280;56128;37.534;-122.308;2023-03-11T00:45:31;101038.53;;;12.23;100.00
69058;BME280;56128;37.534;-122.308;2023-03-11T00:47:58;101045.88;;;12.21;100.00
69058;BME280;56128;37.534;-122.308;2023-03-11T00:50:27;101043.28;;;12.20;100.00
69058;BME280;56128;37.534;-122.308;2023-03-11T00:52:55;101035.84;;;12.12;100.00
69058;BME280;56128;37.534;-122.308;2023-03-11T00:55:24;101036.94;;;12.09;100.00
69058;BME280;56128;37.534;-122.308;2023-03-11T00:57:55;101042.56;;;12.06;100.00
69058;BME280;56128;37.534;-122.308;2023-03-11T01:00:23;101028.41;;;12.04;100.00
69058;BME280;56128;37.534;-122.308;2023-03-11T01:02:50;101038.28;;;12.04;100.00
69058;BME280;56128;37.534;-122.308;2023-03-11T01:05:23;101039.22;;;11.91;100.00
69058;BME280;56128;37.534;-122.308;2023-03-11T01:07:49;101036.88;;;11.86;100.00
69058;BME280;56128;37.534;-122.308;2023-03-11T01:10:16;101036.84;;;11.75;100.00
69058;BME280;56128;37.534;-122.308;2023-03-11T01:12:45;101033.69;;;11.70;100.00
69058;BME280;56128;37.534;-122.308;2023-03-11T01:15:21;101031.34;;;11.65;100.00
69058;BME280;56128;37.534;-122.308;2023-03-11T01:17:47;101028.16;;;11.60;100.00
69058;BME280;56128;37.534;-122.308;2023-03-11T01:20:14;101037.75;;;11.51;100.00
69058;BME280;56128;37.534;-122.308;2023-03-11T01:22:41;101034.81;;;11.43;100.00
69058;BME280;56128;37.534;-122.308;2023-03-11T01:25:11;101040.66;;;11.37;100.00
69058;BME280;56128;37.534;-122.308;2023-03-11T01:27:37;101038.50;;;11.29;100.00
69058;BME280;56128;37.534;-122.308;2023-03-11T01:30:04;101040.19;;;11.19;100.00
69058;BME280;56128;37.534;-122.308;2023-03-11T01:32:30;101035.63;;;11.08;100.00
69058;BME280;56128;37.534;-122.308;2023-03-11T01:34:57;101037.13;;;11.12;100.00
69058;BME280;56128;37.534;-122.308;2023-03-11T01:37:26;101042.69;;;11.09;100.00
69058;BME280;56128;37.534;-122.308;2023-03-11T01:39:52;101034.78;;;11.08;100.00
69058;BME280;56128;37.534;-122.308;2023-03-11T01:42:18;101025.72;;;10.97;100.00
69058;BME280;56128;37.534;-122.308;2023-03-11T01:44:45;101037.72;;;10.92;100.00
69058;BME280;56128;37.534;-122.308;2023-03-11T01:49:38;101057.97;;;10.83;100.00
69058;BME280;56128;37.534;-122.308;2023-03-11T01:52:07;101057.06;;;10.71;100.00
69058;BME280;56128;37.534;-122.308;2023-03-11T01:54:36;101041.88;;;10.59;100.00
69058;BME280;56128;37.534;-122.308;2023-03-11T01:57:06;101046.84;;;10.52;100.00
69058;BME280;56128;37.534;-122.308;2023-03-11T01:59:41;101025.66;;;10.36;100.00
69058;BME280;56128;37.534;-122.308;2023-03-11T02:02:32;101035.81;;;10.31;100.00
69058;BME280;56128;37.534;-122.308;2023-03-11T02:05:01;101045.66;;;10.17;100.00
69058;BME280;56128;37.534;-122.308;2023-03-11T02:07:31;101051.44;;;10.11;100.00
69058;BME280;56128;37.534;-122.308;2023-03-11T02:09:57;101052.06;;;10.02;100.00
69058;BME280;56128;37.534;-122.308;2023-03-11T02:12:24;101044.72;;;9.93;100.00
69058;BME280;56128;37.534;-122.308;2023-03-11T02:14:56;101045.22;;;9.85;100.00
69058;BME280;56128;37.534;-122.308;2023-03-11T02:17:29;101037.06;;;9.73;100.00
69058;BME280;56128;37.534;-122.308;2023-03-11T02:20:08;101043.81;;;9.66;100.00
69058;BME280;56128;37.534;-122.308;2023-03-11T02:22:39;101054.47;;;9.53;100.00
69058;BME280;56128;37.534;-122.308;2023-03-11T02:27:59;101049.72;;;9.31;100.00
69058;BME280;56128;37.534;-122.308;2023-03-11T02:30:26;101052.31;;;9.18;100.00
69058;BME280;56128;37.534;-122.308;2023-03-11T02:32:53;101059.88;;;9.12;100.00
69058;BME280;56128;37.534;-122.308;2023-03-11T02:35:22;101065.19;;;8.99;100.00
69058;BME280;56128;37.534;-122.308;2023-03-11T02:37:50;101080.72;;;8.92;100.00
69058;BME280;56128;37.534;-122.308;2023-03-11T02:42:59;101073.97;;;8.72;100.00
69058;BME280;56128;37.534;-122.308;2023-03-11T02:45:27;101079.69;;;8.66;100.00
69058;BME280;56128;37.534;-122.308;2023-03-11T02:47:56;101077.63;;;8.56;100.00
69058;BME280;56128;37.534;-122.308;2023-03-11T02:50:23;101085.91;;;8.52;100.00
69058;BME280;56128;37.534;-122.308;2023-03-11T02:52:50;101078.25;;;8.45;100.00
69058;BME280;56128;37.534;-122.308;2023-03-11T02:55:20;101077.22;;;8.34;100.00
69058;BME280;56128;37.534;-122.308;2023-03-11T02:57:47;101084.53;;;8.30;100.00
69058;BME280;56128;37.534;-122.308;2023-03-11T03:00:14;101076.47;;;8.17;100.00
69058;BME280;56128;37.534;-122.308;2023-03-11T03:02:42;101084.63;;;8.14;100.00
69058;BME280;56128;37.534;-122.308;2023-03-11T03:05:10;101095.59;;;8.09;100.00
69058;BME280;56128;37.534;-122.308;2023-03-11T03:07:36;101101.19;;;8.05;100.00
69058;BME280;56128;37.534;-122.308;2023-03-11T03:10:04;101090.22;;;7.95;100.00
69058;BME280;56128;37.534;-122.308;2023-03-11T03:12:31;101086.19;;;7.88;100.00
69058;BME280;56128;37.534;-122.308;2023-03-11T03:14:57;101092.94;;;7.79;100.00
69058;BME280;56128;37.534;-122.308;2023-03-11T03:17:24;101096.53;;;7.78;100.00
69058;BME280;56128;37.534;-122.308;2023-03-11T03:19:50;101084.72;;;7.68;100.00
69058;BME280;56128;37.534;-122.308;2023-03-11T03:22:16;101090.03;;;7.68;100.00
69058;BME280;56128;37.534;-122.308;2023-03-11T03:24:43;101097.53;;;7.61;100.00
69058;BME280;56128;37.534;-122.308;2023-03-11T03:27:11;101092.78;;;7.52;100.00
69058;BME280;56128;37.534;-122.308;2023-03-11T03:29:38;101100.75;;;7.52;100.00
69058;BME280;56128;37.534;-122.308;2023-03-11T03:32:04;101095.59;;;7.48;100.00
69058;BME280;56128;37.534;-122.308;2023-03-11T03:34:30;101086.47;;;7.53;100.00
69058;BME280;56128;37.534;-122.308;2023-03-11T03:36:56;101079.34;;;7.53;100.00
69058;BME280;56128;37.534;-122.308;2023-03-11T03:39:23;101090.09;;;7.52;100.00
69058;BME280;56128;37.534;-122.308;2023-03-11T03:41:49;101091.13;;;7.49;100.00
69058;BME280;56128;37.534;-122.308;2023-03-11T03:44:15;101101.75;;;7.49;100.00
69058;BME280;56128;37.534;-122.308;2023-03-11T03:46:41;101103.69;;;7.47;100.00
69058;BME280;56128;37.534;-122.308;2023-03-11T03:49:08;101090.38;;;7.47;100.00
69058;BME280;56128;37.534;-122.308;2023-03-11T03:51:34;101091.31;;;7.46;100.00
69058;BME280;56128;37.534;-122.308;2023-03-11T03:54:00;101112.25;;;7.52;100.00
69058;BME280;56128;37.534;-122.308;2023-03-11T03:56:26;101117.38;;;7.55;100.00
69058;BME280;56128;37.534;-122.308;2023-03-11T03:58:53;101129.66;;;7.58;100.00
69058;BME280;56128;37.534;-122.308;2023-03-11T04:01:20;101128.03;;;7.55;100.00
69058;BME280;56128;37.534;-122.308;2023-03-11T04:03:46;101127.00;;;7.58;100.00
69058;BME280;56128;37.534;-122.308;2023-03-11T04:06:24;101132.16;;;7.61;100.00
69058;BME280;56128;37.534;-122.308;2023-03-11T04:08:52;101134.72;;;7.62;100.00
69058;BME280;56128;37.534;-122.308;2023-03-11T04:11:19;101129.31;;;7.64;100.00
69058;BME280;56128;37.534;-122.308;2023-03-11T04:13:46;101117.81;;;7.63;100.00
69058;BME280;56128;37.534;-122.308;2023-03-11T04:16:16;101094.88;;;7.61;100.00
69058;BME280;56128;37.534;-122.308;2023-03-11T04:18:43;101095.56;;;7.64;100.00
69058;BME280;56128;37.534;-122.308;2023-03-11T04:21:10;101114.00;;;7.68;100.00
69058;BME280;56128;37.534;-122.308;2023-03-11T04:23:36;101134.47;;;7.67;100.00
69058;BME280;56128;37.534;-122.308;2023-03-11T04:26:03;101145.97;;;7.68;100.00
69058;BME280;56128;37.534;-122.308;2023-03-11T04:28:29;101151.88;;;7.73;100.00
69058;BME280;56128;37.534;-122.308;2023-03-11T04:30:55;101147.34;;;7.75;100.00
69058;BME280;56128;37.534;-122.308;2023-03-11T04:33:21;101152.56;;;7.76;100.00
69058;BME280;56128;37.534;-122.308;2023-03-11T04:35:48;101155.16;;;7.78;100.00
69058;BME280;56128;37.534;-122.308;2023-03-11T04:38:14;101168.47;;;7.78;100.00
69058;BME280;56128;37.534;-122.308;2023-03-11T04:40:40;101169.25;;;7.80;100.00
69058;BME280;56128;37.534;-122.308;2023-03-11T04:43:06;101169.06;;;7.83;100.00
69058;BME280;56128;37.534;-122.308;2023-03-11T04:45:33;101173.44;;;7.84;100.00
69058;BME280;56128;37.534;-122.308;2023-03-11T04:48:01;101161.69;;;7.88;100.00
69058;BME280;56128;37.534;-122.308;2023-03-11T04:50:27;101161.47;;;7.91;100.00
69058;BME280;56128;37.534;-122.308;2023-03-11T04:52:53;101179.88;;;7.96;100.00
69058;BME280;56128;37.534;-122.308;2023-03-11T04:55:21;101174.34;;;7.99;100.00
69058;BME280;56128;37.534;-122.308;2023-03-11T04:57:47;101171.41;;;8.04;100.00
69058;BME280;56128;37.534;-122.308;2023-03-11T05:00:14;101164.19;;;8.06;100.00
69058;BME280;56128;37.534;-122.308;2023-03-11T05:02:41;101170.38;;;8.06;100.00
69058;BME280;56128;37.534;-122.308;2023-03-11T05:05:08;101164.94;;;8.08;100.00
69058;BME280;56128;37.534;-122.308;2023-03-11T05:07:35;101159.72;;;8.06;100.00
69058;BME280;56128;37.534;-122.308;2023-03-11T05:10:03;101169.53;;;8.06;100.00
69058;BME280;56128;37.534;-122.308;2023-03-11T05:12:30;101172.09;;;8.07;100.00
69058;BME280;56128;37.534;-122.308;2023-03-11T05:14:56;101178.47;;;8.05;100.00
69058;BME280;56128;37.534;-122.308;2023-03-11T05:17:22;101176.94;;;8.01;100.00
69058;BME280;56128;37.534;-122.308;2023-03-11T05:19:50;101180.56;;;8.00;100.00
69058;BME280;56128;37.534;-122.308;2023-03-11T05:22:18;101193.09;;;7.97;100.00
69058;BME280;56128;37.534;-122.308;2023-03-11T05:24:45;101194.91;;;7.97;100.00
69058;BME280;56128;37.534;-122.308;2023-03-11T05:27:12;101187.78;;;7.97;100.00
69058;BME280;56128;37.534;-122.308;2023-03-11T05:29:41;101177.47;;;7.91;100.00
69058;BME280;56128;37.534;-122.308;2023-03-11T05:32:07;101186.81;;;7.99;100.00
69058;BME280;56128;37.534;-122.308;2023-03-11T05:34:33;101186.81;;;7.99;100.00
69058;BME280;56128;37.534;-122.308;2023-03-11T05:36:59;101192.06;;;8.00;100.00
69058;BME280;56128;37.534;-122.308;2023-03-11T05:39:26;101198.06;;;8.04;100.00
69058;BME280;56128;37.534;-122.308;2023-03-11T05:41:52;101195.50;;;8.02;100.00
69058;BME280;56128;37.534;-122.308;2023-03-11T05:44:21;101197.91;;;8.07;100.00
69058;BME280;56128;37.534;-122.308;2023-03-11T05:46:48;101192.56;;;8.07;100.00
69058;BME280;56128;37.534;-122.308;2023-03-11T05:49:14;101180.34;;;8.03;100.00
69058;BME280;56128;37.534;-122.308;2023-03-11T05:51:40;101195.81;;;8.12;100.00
69058;BME280;56128;37.534;-122.308;2023-03-11T05:54:06;101196.56;;;8.14;100.00
69058;BME280;56128;37.534;-122.308;2023-03-11T05:56:40;101202.69;;;8.16;100.00
69058;BME280;56128;37.534;-122.308;2023-03-11T05:59:07;101198.28;;;8.15;100.00
69058;BME280;56128;37.534;-122.308;2023-03-11T06:01:34;101192.03;;;8.16;100.00
69058;BME280;56128;37.534;-122.308;2023-03-11T06:04:01;101193.91;;;8.14;100.00
69058;BME280;56128;37.534;-122.308;2023-03-11T06:06:27;101206.19;;;8.17;100.00
69058;BME280;56128;37.534;-122.308;2023-03-11T06:08:56;101199.25;;;8.14;100.00
69058;BME280;56128;37.534;-122.308;2023-03-11T06:11:23;101204.56;;;8.14;100.00
69058;BME280;56128;37.534;-122.308;2023-03-11T06:13:54;101209.91;;;8.14;100.00
69058;BME280;56128;37.534;-122.308;2023-03-11T06:16:21;101213.81;;;8.08;100.00
69058;BME280;56128;37.534;-122.308;2023-03-11T06:18:51;101219.22;;;8.07;100.00
69058;BME280;56128;37.534;-122.308;2023-03-11T06:21:21;101225.56;;;8.04;100.00
69058;BME280;56128;37.534;-122.308;2023-03-11T06:23:48;101230.91;;;8.04;100.00
69058;BME280;56128;37.534;-122.308;2023-03-11T06:26:17;101236.63;;;7.98;100.00
69058;BME280;56128;37.534;-122.308;2023-03-11T06:28:46;101237.63;;;7.95;100.00
69058;BME280;56128;37.534;-122.308;2023-03-11T06:31:26;101235.94;;;7.94;100.00
69058;BME280;56128;37.534;-122.308;2023-03-11T06:33:53;101237.56;;;7.97;100.00
69058;BME280;56128;37.534;-122.308;2023-03-11T06:36:24;101238.50;;;7.96;100.00
69058;BME280;56128;37.534;-122.308;2023-03-11T06:38:53;101234.94;;;7.95;100.00
69058;BME280;56128;37.534;-122.308;2023-03-11T06:41:22;101240.91;;;8.01;100.00
69058;BME280;56128;37.534;-122.308;2023-03-11T06:43:52;101242.59;;;8.02;100.00
69058;BME280;56128;37.534;-122.308;2023-03-11T06:46:20;101247.56;;;8.08;100.00
69058;BME280;56128;37.534;-122.308;2023-03-11T06:48:48;101244.06;;;8.07;100.00
69058;BME280;56128;37.534;-122.308;2023-03-11T06:51:18;101250.06;;;8.11;100.00
69058;BME280;56128;37.534;-122.308;2023-03-11T06:53:49;101259.59;;;8.15;100.00
69058;BME280;56128;37.534;-122.308;2023-03-11T06:56:17;101264.09;;;8.15;100.00
69058;BME280;56128;37.534;-122.308;2023-03-11T06:58:44;101267.50;;;8.17;100.00
69058;BME280;56128;37.534;-122.308;2023-03-11T07:01:13;101270.94;;;8.19;100.00
69058;BME280;56128;37.534;-122.308;2023-03-11T07:03:40;101266.31;;;8.22;100.00
69058;BME280;56128;37.534;-122.308;2023-03-11T07:06:15;101268.03;;;8.23;100.00
69058;BME280;56128;37.534;-122.308;2023-03-11T07:08:41;101276.78;;;8.25;100.00
69058;BME280;56128;37.534;-122.308;2023-03-11T07:11:14;101268.03;;;8.23;100.00
69058;BME280;56128;37.534;-122.308;2023-03-11T07:13:41;101274.09;;;8.25;100.00
69058;BME280;56128;37.534;-122.308;2023-03-11T07:16:15;101275.03;;;8.24;100.00
69058;BME280;56128;37.534;-122.308;2023-03-11T07:18:43;101276.78;;;8.25;100.00
69058;BME280;56128;37.534;-122.308;2023-03-11T07:21:11;101276.28;;;8.19;100.00
69058;BME280;56128;37.534;-122.308;2023-03-11T07:23:38;101267.94;;;8.09;100.00
69058;BME280;56128;37.534;-122.308;2023-03-11T07:26:10;101271.91;;;8.02;100.00
69058;BME280;56128;37.534;-122.308;2023-03-11T07:28:37;101271.50;;;7.93;100.00
69058;BME280;56128;37.534;-122.308;2023-03-11T07:31:16;101272.78;;;7.86;100.00
69058;BME280;56128;37.534;-122.308;2023-03-11T07:33:43;101272.34;;;7.78;100.00
69058;BME280;56128;37.534;-122.308;2023-03-11T07:36:20;101272.03;;;7.68;100.00
69058;BME280;56128;37.534;-122.308;2023-03-11T07:38:47;101282.34;;;7.58;100.00
69058;BME280;56128;37.534;-122.308;2023-03-11T07:41:14;101288.84;;;7.53;100.00
69058;BME280;56128;37.534;-122.308;2023-03-11T07:43:42;101292.72;;;7.47;100.00
69058;BME280;56128;37.534;-122.308;2023-03-11T07:46:13;101292.88;;;7.44;100.00
69058;BME280;56128;37.534;-122.308;2023-03-11T07:48:48;101286.09;;;7.38;100.00
69058;BME280;56128;37.534;-122.308;2023-03-11T07:51:35;101288.75;;;7.38;100.00
69058;BME280;56128;37.534;-122.308;2023-03-11T07:54:02;101292.13;;;7.42;100.00
69058;BME280;56128;37.534;-122.308;2023-03-11T07:56:30;101285.91;;;7.41;100.00
69058;BME280;56128;37.534;-122.308;2023-03-11T07:58:58;101284.28;;;7.39;100.00
69058;BME280;56128;37.534;-122.308;2023-03-11T08:01:27;101281.81;;;7.36;100.00
69058;BME280;56128;37.534;-122.308;2023-03-11T08:03:57;101280.06;;;7.35;100.00
69058;BME280;56128;37.534;-122.308;2023-03-11T08:06:28;101289.19;;;7.30;100.00
69058;BME280;56128;37.534;-122.308;2023-03-11T08:09:00;101292.59;;;7.32;100.00
69058;BME280;56128;37.534;-122.308;2023-03-11T08:11:27;101289.88;;;7.34;100.00
69058;BME280;56128;37.534;-122.308;2023-03-11T08:13:53;101290.56;;;7.38;100.00
69058;BME280;56128;37.534;-122.308;2023-03-11T08:16:20;101290.72;;;7.35;100.00
69058;BME280;56128;37.534;-122.308;2023-03-11T08:18:48;101294.31;;;7.34;100.00
69058;BME280;56128;37.534;-122.308;2023-03-11T08:21:24;101303.94;;;7.36;100.00
69058;BME280;56128;37.534;-122.308;2023-03-11T08:23:51;101292.59;;;7.32;100.00
69058;BME280;56128;37.534;-122.308;2023-03-11T08:26:21;101297.41;;;7.26;100.00
69058;BME280;56128;37.534;-122.308;2023-03-11T08:28:48;101293.13;;;7.23;100.00
69058;BME280;56128;37.534;-122.308;2023-03-11T08:31:20;101299.38;;;7.22;100.00
69058;BME280;56128;37.534;-122.308;2023-03-11T08:33:50;101306.50;;;7.22;100.00
69058;BME280;56128;37.534;-122.308;2023-03-11T08:36:18;101293.44;;;7.17;100.00
69058;BME280;56128;37.534;-122.308;2023-03-11T08:38:44;101296.88;;;7.19;100.00
69058;BME280;56128;37.534;-122.308;2023-03-11T08:41:11;101285.78;;;7.11;100.00
69058;BME280;56128;37.534;-122.308;2023-03-11T08:43:38;101295.31;;;7.15;100.00
69058;BME280;56128;37.534;-122.308;2023-03-11T08:46:05;101295.59;;;7.10;100.00
69058;BME280;56128;37.534;-122.308;2023-03-11T08:48:32;101293.75;;;7.11;100.00
69058;BME280;56128;37.534;-122.308;2023-03-11T08:50:59;101297.38;;;7.10;100.00
69058;BME280;56128;37.534;-122.308;2023-03-11T08:53:25;101299.94;;;7.11;100.00
69058;BME280;56128;37.534;-122.308;2023-03-11T08:55:52;101297.22;;;7.13;100.00
69058;BME280;56128;37.534;-122.308;2023-03-11T08:58:19;101291.00;;;7.12;100.00
69058;BME280;56128;37.534;-122.308;2023-03-11T09:00:45;101293.53;;;7.15;100.00
69058;BME280;56128;37.534;-122.308;2023-03-11T09:03:12;101305.63;;;7.21;100.00
69058;BME280;56128;37.534;-122.308;2023-03-11T09:05:38;101294.91;;;7.23;100.00
69058;BME280;56128;37.534;-122.308;2023-03-11T09:08:05;101311.56;;;7.26;100.00
69058;BME280;56128;37.534;-122.308;2023-03-11T09:10:31;101306.41;;;7.23;100.00
69058;BME280;56128;37.534;-122.308;2023-03-11T09:12:57;101316.84;;;7.28;100.00
69058;BME280;56128;37.534;-122.308;2023-03-11T09:15:23;101313.28;;;7.27;100.00
69058;BME280;56128;37.534;-122.308;2023-03-11T09:17:50;101314.84;;;7.31;100.00
69058;BME280;56128;37.534;-122.308;2023-03-11T09:20:16;101319.22;;;7.32;100.00
69058;BME280;56128;37.534;-122.308;2023-03-11T09:22:42;101317.34;;;7.35;100.00
69058;BME280;56128;37.534;-122.308;2023-03-11T09:25:11;101301.38;;;7.35;100.00
69058;BME280;56128;37.534;-122.308;2023-03-11T09:27:37;101308.34;;;7.37;100.00
69058;BME280;56128;37.534;-122.308;2023-03-11T09:30:04;101299.41;;;7.38;100.00
69058;BME280;56128;37.534;-122.308;2023-03-11T09:32:30;101300.34;;;7.37;100.00
69058;BME280;56128;37.534;-122.308;2023-03-11T09:34:56;101297.94;;;7.32;100.00
69058;BME280;56128;37.534;-122.308;2023-03-11T09:37:24;101303.44;;;7.29;100.00
69058;BME280;56128;37.534;-122.308;2023-03-11T09:39:51;101304.56;;;7.25;100.00
69058;BME280;56128;37.534;-122.308;2023-03-11T09:45:37;101296.75;;;7.05;100.00
69058;BME280;56128;37.534;-122.308;2023-03-11T09:48:23;101298.78;;;6.99;100.00
69058;BME280;56128;37.534;-122.308;2023-03-11T09:51:24;101308.59;;;6.99;100.00
69058;BME280;56128;37.534;-122.308;2023-03-11T09:54:02;101313.22;;;6.95;100.00
69058;BME280;56128;37.534;-122.308;2023-03-11T09:56:30;101304.53;;;6.92;100.00
69058;BME280;56128;37.534;-122.308;2023-03-11T09:59:18;101313.63;;;6.88;100.00
69058;BME280;56128;37.534;-122.308;2023-03-11T10:01:48;101312.72;;;6.87;100.00
69058;BME280;56128;37.534;-122.308;2023-03-11T10:04:19;101307.41;;;6.87;100.00
69058;BME280;56128;37.534;-122.308;2023-03-11T10:06:47;101317.34;;;6.83;100.00
69058;BME280;56128;37.534;-122.308;2023-03-11T10:09:36;101311.31;;;6.80;100.00
69058;BME280;56128;37.534;-122.308;2023-03-11T10:12:28;101317.75;;;6.76;100.00
69058;BME280;56128;37.534;-122.308;2023-03-11T10:20:47;101292.09;;;6.57;100.00
69058;BME280;56128;37.534;-122.308;2023-03-11T10:31:46;101284.72;;;6.45;100.00
69058;BME280;56128;37.534;-122.308;2023-03-11T10:34:23;101282.06;;;6.45;100.00
69058;BME280;56128;37.534;-122.308;2023-03-11T10:37:16;101288.06;;;6.50;100.00
69058;BME280;56128;37.534;-122.308;2023-03-11T10:39:46;101290.44;;;6.55;100.00
69058;BME280;56128;37.534;-122.308;2023-03-11T10:42:20;101291.06;;;6.60;100.00
69058;BME280;56128;37.534;-122.308;2023-03-11T10:44:47;101285.75;;;6.60;100.00
69058;BME280;56128;37.534;-122.308;2023-03-11T10:47:19;101280.91;;;6.68;100.00
69058;BME280;56128;37.534;-122.308;2023-03-11T10:49:46;101279.72;;;6.74;100.00
69058;BME280;56128;37.534;-122.308;2023-03-11T10:52:12;101273.31;;;6.78;100.00
69058;BME280;56128;37.534;-122.308;2023-03-11T10:54:44;101272.31;;;6.80;100.00
69058;BME280;56128;37.534;-122.308;2023-03-11T10:57:34;101266.72;;;6.85;100.00
69058;BME280;56128;37.534;-122.308;2023-03-11T11:00:03;101269.06;;;6.91;100.00
69058;BME280;56128;37.534;-122.308;2023-03-11T11:02:53;101272.41;;;6.95;100.00
69058;BME280;56128;37.534;-122.308;2023-03-11T11:05:33;101250.44;;;6.91;100.00
69058;BME280;56128;37.534;-122.308;2023-03-11T11:08:20;101263.41;;;6.97;100.00
69058;BME280;56128;37.534;-122.308;2023-03-11T11:10:59;101264.22;;;6.99;100.00
69058;BME280;56128;37.534;-122.308;2023-03-11T11:13:29;101261.47;;;7.01;100.00
69058;BME280;56128;37.534;-122.308;2023-03-11T11:16:05;101244.88;;;6.96;100.00
69058;BME280;56128;37.534;-122.308;2023-03-11T11:18:46;101255.28;;;7.01;100.00
69058;BME280;56128;37.534;-122.308;2023-03-11T11:21:27;101254.34;;;7.02;100.00
69058;BME280;56128;37.534;-122.308;2023-03-11T11:26:37;101255.63;;;6.94;100.00
69058;BME280;56128;37.534;-122.308;2023-03-11T11:29:12;101242.53;;;6.90;100.00
69058;BME280;56128;37.534;-122.308;2023-03-11T11:31:41;101243.66;;;6.86;100.00
69058;BME280;56128;37.534;-122.308;2023-03-11T11:34:28;101267.69;;;6.84;100.00
69058;BME280;56128;37.534;-122.308;2023-03-11T11:36:57;101264.25;;;6.82;100.00
69058;BME280;56128;37.534;-122.308;2023-03-11T11:39:26;101265.09;;;6.82;100.00
69058;BME280;56128;37.534;-122.308;2023-03-11T11:41:55;101263.31;;;6.83;100.00
69058;BME280;56128;37.534;-122.308;2023-03-11T11:44:27;101253.41;;;6.85;100.00
69058;BME280;56128;37.534;-122.308;2023-03-11T11:46:55;101254.22;;;6.87;100.00
69058;BME280;56128;37.534;-122.308;2023-03-11T11:49:29;101251.63;;;6.86;100.00
69058;BME280;56128;37.534;-122.308;2023-03-11T11:54:37;101238.56;;;6.81;100.00
69058;BME280;56128;37.534;-122.308;2023-03-11T11:57:15;101233.44;;;6.78;100.00
69058;BME280;56128;37.534;-122.308;2023-03-11T11:59:42;101233.50;;;6.76;100.00
69058;BME280;56128;37.534;-122.308;2023-03-11T12:05:30;101229.84;;;6.79;100.00
69058;BME280;56128;37.534;-122.308;2023-03-11T12:08:09;101230.81;;;6.76;100.00
69058;BME280;56128;37.534;-122.308;2023-03-11T12:22:08;101244.44;;;6.88;100.00
69058;BME280;56128;37.534;-122.308;2023-03-11T12:27:39;101249.41;;;6.94;100.00
69058;BME280;56128;37.534;-122.308;2023-03-11T12:33:05;101245.50;;;7.01;100.00
69058;BME280;56128;37.534;-122.308;2023-03-11T12:35:34;101248.06;;;7.03;100.00
69058;BME280;56128;37.534;-122.308;2023-03-11T12:38:38;101242.59;;;7.06;100.00
69058;BME280;56128;37.534;-122.308;2023-03-11T12:46:00;101251.09;;;7.12;100.00
69058;BME280;56128;37.534;-122.308;2023-03-11T12:51:00;101251.88;;;7.14;100.00
69058;BME280;56128;37.534;-122.308;2023-03-11T12:53:48;101258.75;;;7.19;100.00
69058;BME280;56128;37.534;-122.308;2023-03-11T12:59:09;101248.88;;;7.21;100.00
69058;BME280;56128;37.534;-122.308;2023-03-11T13:01:55;101254.13;;;7.22;100.00
69058;BME280;56128;37.534;-122.308;2023-03-11T13:04:39;101255.84;;;7.23;100.00
69058;BME280;56128;37.534;-122.308;2023-03-11T13:10:12;101259.13;;;7.28;100.00
69058;BME280;56128;37.534;-122.308;2023-03-11T13:12:44;101259.72;;;7.34;100.00
69058;BME280;56128;37.534;-122.308;2023-03-11T13:23:20;101254.66;;;7.45;100.00
69058;BME280;56128;37.534;-122.308;2023-03-11T13:28:26;101272.03;;;7.52;100.00
69058;BME280;56128;37.534;-122.308;2023-03-11T13:31:28;101267.41;;;7.56;100.00
69058;BME280;56128;37.534;-122.308;2023-03-11T13:39:05;101269.63;;;7.63;100.00
69058;BME280;56128;37.534;-122.308;2023-03-11T13:41:36;101278.41;;;7.66;100.00
69058;BME280;56128;37.534;-122.308;2023-03-11T13:47:00;101272.88;;;7.69;100.00
69058;BME280;56128;37.534;-122.308;2023-03-11T13:49:58;101283.28;;;7.73;100.00
69058;BME280;56128;37.534;-122.308;2023-03-11T13:52:34;101263.03;;;7.71;100.00
69058;BME280;56128;37.534;-122.308;2023-03-11T13:55:05;101268.75;;;7.79;100.00